.
WxDataArchive / Data Records for 2007-02-21
2007-02-20 February 2007 2007-02-22

Data Records for Wednesday, 21 February 2007

Time	Temp	Chill	HIndex	Humid	Dewpt	 Wind 	HiWind	WindDir	Rain 	Barom 
-----	----	-----	------	-----	-----	------	------	-------	-----	----- 
00:00	27.2	27.2	27.2	94	25.7	0	0	---	0.00	29.789 
00:05	27.0	27.0	27.0	94	25.5	0	0	---	0.00	29.787 
00:10	26.7	26.7	26.7	94	25.2	0	0	---	0.00	29.786 
00:15	26.3	26.3	26.3	94	24.8	0	0	---	0.00	29.785 
00:20	26.0	26.0	26.0	94	24.5	0	0	---	0.00	29.787 
00:25	25.8	25.8	25.8	94	24.3	0	0	---	0.00	29.788 
00:30	25.6	25.6	25.6	94	24.1	0	0	---	0.00	29.789 
00:35	25.4	25.4	25.4	94	23.9	0	0	---	0.00	29.790 
00:40	25.1	25.1	25.1	94	23.6	0	0	---	0.00	29.791 
00:45	25.0	25.0	25.0	94	23.5	0	0	---	0.00	29.793 
00:50	24.8	24.8	24.8	94	23.3	0	0	---	0.00	29.795 
00:55	24.7	24.7	24.7	94	23.2	0	0	---	0.00	29.796 
01:00	24.4	24.4	24.4	94	22.9	0	0	---	0.00	29.798 
01:05	24.2	24.2	24.2	94	22.7	0	0	---	0.00	29.799 
01:10	24.1	24.1	24.1	94	22.6	0	0	---	0.00	29.801 
01:15	24.1	24.1	24.1	94	22.6	0	0	---	0.00	29.804 
01:20	24.4	24.4	24.4	94	22.9	0	0	---	0.00	29.806 
01:25	24.4	24.4	24.4	94	22.9	0	0	---	0.00	29.807 
01:30	24.2	24.2	24.2	94	22.7	0	0	---	0.00	29.807 
01:35	24.1	24.1	24.1	94	22.6	0	0	---	0.00	29.807 
01:40	24.1	24.1	24.1	94	22.6	0	0	---	0.00	29.807 
01:45	23.9	23.9	23.9	94	22.4	0	0	---	0.00	29.806 
01:50	23.8	23.8	23.8	94	22.3	0	0	---	0.00	29.804 
01:55	23.8	23.8	23.8	94	22.3	0	0	---	0.00	29.805 
02:00	23.8	23.8	23.8	94	22.3	0	0	---	0.00	29.801 
02:05	23.6	23.6	23.6	94	22.1	0	0	---	0.00	29.801 
02:10	23.5	23.5	23.5	94	22.0	0	0	---	0.00	29.799 
02:15	23.3	23.3	23.3	94	21.8	0	0	---	0.00	29.799 
02:20	23.2	23.2	23.2	93	21.5	0	0	---	0.00	29.799 
02:25	23.0	23.0	23.0	93	21.3	0	0	---	0.00	29.798 
02:30	22.9	22.9	22.9	93	21.2	0	0	---	0.00	29.799 
02:35	22.9	22.9	22.9	93	21.2	0	0	---	0.00	29.800 
02:40	22.7	22.7	22.7	93	21.0	0	0	---	0.00	29.799 
02:45	22.5	22.5	22.5	93	20.8	0	0	---	0.00	29.800 
02:50	22.4	22.4	22.4	93	20.7	0	0	---	0.00	29.800 
02:55	22.4	22.4	22.4	93	20.7	0	0	---	0.00	29.797 
03:00	22.2	22.2	22.2	93	20.5	0	0	---	0.00	29.796 
03:05	22.2	22.2	22.2	93	20.5	0	0	---	0.00	29.798 
03:10	22.4	22.4	22.4	93	20.7	0	0	---	0.00	29.798 
03:15	22.5	22.5	22.5	94	21.0	0	0	---	0.00	29.798 
03:20	22.5	22.5	22.5	94	21.0	0	0	---	0.00	29.797 
03:25	22.5	22.5	22.5	93	20.8	0	0	---	0.00	29.795 
03:30	22.4	22.4	22.4	93	20.7	0	0	---	0.00	29.795 
03:35	22.4	22.4	22.4	93	20.7	0	0	---	0.00	29.796 
03:40	22.2	22.2	22.2	93	20.5	0	0	---	0.00	29.797 
03:45	22.2	22.2	22.2	93	20.5	0	0	---	0.00	29.802 
03:50	22.1	22.1	22.1	93	20.4	0	0	---	0.00	29.808 
03:55	22.1	22.1	22.1	93	20.4	0	0	---	0.00	29.810 
04:00	22.1	22.1	22.1	93	20.4	0	0	---	0.00	29.812 
04:05	22.1	22.1	22.1	93	20.4	0	0	---	0.00	29.812 
04:10	22.1	22.1	22.1	93	20.4	0	0	---	0.00	29.812 
04:15	22.1	22.1	22.1	93	20.4	0	0	---	0.00	29.812 
04:20	22.1	22.1	22.1	93	20.4	0	0	---	0.00	29.813 
04:25	22.1	22.1	22.1	93	20.4	0	0	---	0.00	29.814 
04:30	22.2	22.2	22.2	93	20.5	0	0	---	0.00	29.817 
04:35	22.1	22.1	22.1	93	20.4	0	0	---	0.00	29.817 
04:40	22.1	22.1	22.1	93	20.4	0	0	---	0.00	29.821 
04:45	22.1	22.1	22.1	93	20.4	0	0	---	0.00	29.826 
04:50	22.1	22.1	22.1	93	20.4	0	0	---	0.00	29.827 
04:55	22.1	22.1	22.1	93	20.4	0	0	---	0.00	29.829 
05:00	22.1	22.1	22.1	93	20.4	0	0	---	0.00	29.833 
05:05	22.2	22.2	22.2	93	20.5	0	0	---	0.00	29.837 
05:10	22.2	22.2	22.2	93	20.5	0	0	---	0.00	29.841 
05:15	22.5	22.5	22.5	93	20.8	0	0	---	0.00	29.844 
05:20	22.7	22.7	22.7	94	21.2	0	1	338	0.00	29.844 
05:25	23.0	23.0	23.0	94	21.5	0	0	---	0.00	29.844 
05:30	23.2	23.2	23.2	94	21.7	0	0	---	0.00	29.848 
05:35	23.2	23.2	23.2	94	21.7	0	0	---	0.00	29.854 
05:40	23.3	23.3	23.3	94	21.8	0	0	---	0.00	29.854 
05:45	23.3	23.3	23.3	94	21.8	0	0	---	0.00	29.859 
05:50	23.5	23.5	23.5	94	22.0	0	0	---	0.00	29.859 
05:55	23.6	23.6	23.6	94	22.1	0	0	---	0.00	29.858 
06:00	23.6	23.6	23.6	94	22.1	0	0	---	0.00	29.858 
06:05	23.8	23.8	23.8	94	22.3	0	0	---	0.00	29.862 
06:10	23.9	23.9	23.9	94	22.4	0	0	---	0.00	29.863 
06:15	24.1	24.1	24.1	94	22.6	0	1	338	0.00	29.865 
06:20	24.2	24.2	24.2	94	22.7	0	1	338	0.00	29.865 
06:25	24.4	24.4	24.4	94	22.9	0	1	338	0.00	29.867 
06:30	24.4	24.4	24.4	94	22.9	0	0	---	0.00	29.868 
06:35	24.4	24.4	24.4	94	22.9	0	0	---	0.00	29.869 
06:40	24.5	24.5	24.5	94	23.0	0	0	---	0.00	29.867 
06:45	24.7	24.7	24.7	94	23.2	0	0	---	0.00	29.869 
06:50	24.7	24.7	24.7	94	23.2	0	0	---	0.00	29.870 
06:55	24.7	24.7	24.7	94	23.2	0	0	---	0.00	29.871 
07:00	24.8	24.8	24.8	94	23.3	0	0	---	0.00	29.867 
07:05	24.8	24.8	24.8	94	23.3	0	0	---	0.00	29.870 
07:10	25.0	25.0	25.0	94	23.5	0	0	---	0.00	29.872 
07:15	25.1	25.1	25.1	94	23.6	0	0	---	0.00	29.876 
07:20	25.1	25.1	25.1	95	23.9	0	1	338	0.00	29.879 
07:25	25.3	25.3	25.3	95	24.1	0	1	338	0.00	29.880 
07:30	25.3	25.3	25.3	95	24.1	0	1	338	0.00	29.880 
07:35	25.4	25.4	25.4	95	24.2	0	1	338	0.00	29.882 
07:40	25.4	25.4	25.4	95	24.2	0	1	338	0.00	29.884 
07:45	25.4	25.4	25.4	95	24.2	0	2	248	0.00	29.889 
07:50	25.4	25.4	25.4	95	24.2	0	1	248	0.00	29.890 
07:55	25.4	25.4	25.4	95	24.2	0	1	248	0.00	29.891 
08:00	25.4	25.4	25.4	95	24.2	0	1	248	0.00	29.888 
08:05	25.4	25.4	25.4	95	24.2	1	3	248	0.00	29.892 
08:10	25.4	25.4	25.4	95	24.2	0	1	248	0.00	29.889 
08:15	25.6	25.6	25.6	95	24.4	0	2	248	0.00	29.891 
08:20	25.6	25.6	25.6	95	24.4	0	1	248	0.00	29.894 
08:25	25.8	25.8	25.8	95	24.6	0	1	248	0.00	29.894 
08:30	25.8	25.8	25.8	95	24.6	0	0	---	0.00	29.894 
08:35	25.8	25.8	25.8	95	24.6	0	1	248	0.00	29.894 
08:40	25.8	25.8	25.8	95	24.6	0	2	248	0.00	29.895 
08:45	25.8	25.8	25.8	95	24.6	0	1	248	0.00	29.896 
08:50	25.8	25.8	25.8	95	24.6	0	1	248	0.00	29.897 
08:55	26.0	26.0	26.0	95	24.8	0	2	248	0.00	29.897 
09:00	26.1	26.1	26.1	95	24.9	0	1	248	0.00	29.896 
09:05	26.4	26.4	26.4	95	25.2	0	1	248	0.00	29.896 
09:10	26.6	26.6	26.6	95	25.4	0	0	---	0.00	29.897 
09:15	26.6	26.6	26.6	95	25.4	0	1	248	0.00	29.902 
09:20	26.7	26.7	26.7	95	25.5	0	1	248	0.00	29.902 
09:25	27.0	27.0	27.0	95	25.8	0	1	248	0.00	29.903 
09:30	27.2	27.2	27.2	95	26.0	0	1	248	0.00	29.903 
09:35	27.3	27.3	27.3	95	26.1	0	1	248	0.00	29.904 
09:40	27.5	27.5	27.5	95	26.3	0	1	248	0.00	29.903 
09:45	27.8	27.8	27.8	95	26.6	0	1	248	0.00	29.904 
09:50	27.9	27.9	27.9	95	26.7	0	1	248	0.00	29.900 
09:55	28.2	28.2	28.2	95	27.0	0	1	248	0.00	29.900 
10:00	28.4	28.4	28.4	95	27.2	0	1	248	0.00	29.900 
10:05	28.7	28.7	28.7	95	27.5	0	3	248	0.00	29.899 
10:10	28.8	28.8	28.8	95	27.6	0	2	248	0.00	29.901 
10:15	29.0	29.0	29.0	95	27.8	0	2	248	0.00	29.904 
10:20	29.0	29.0	29.0	96	28.0	0	1	248	0.00	29.904 
10:25	29.1	29.1	29.1	96	28.1	0	1	248	0.00	29.903 
10:30	29.3	29.3	29.3	96	28.3	0	0	---	0.00	29.903 
10:35	29.4	29.4	29.4	96	28.4	0	0	---	0.00	29.904 
10:40	29.7	29.7	29.7	96	28.7	0	1	248	0.00	29.905 
10:45	30.0	30.0	30.0	96	29.0	0	1	248	0.00	29.904 
10:50	30.3	30.3	30.3	96	29.3	0	1	248	0.00	29.905 
10:55	30.4	30.4	30.4	96	29.4	0	2	248	0.00	29.905 
11:00	30.9	30.9	30.9	96	29.9	0	1	248	0.00	29.904 
11:05	31.2	31.2	31.2	96	30.2	0	3	248	0.00	29.907 
11:10	31.3	31.3	31.3	96	30.3	0	2	248	0.00	29.908 
11:15	31.6	31.6	31.6	96	30.6	0	2	248	0.00	29.911 
11:20	31.6	31.6	31.6	96	30.6	1	2	292	0.00	29.915 
11:25	31.8	31.8	31.8	96	30.8	0	2	292	0.00	29.919 
11:30	32.1	32.1	32.1	96	31.1	0	1	292	0.00	29.921 
11:35	32.4	32.4	32.4	97	31.6	0	2	270	0.00	29.921 
11:40	32.5	32.5	32.5	97	31.7	0	2	270	0.00	29.920 
11:45	32.7	32.7	32.7	97	31.9	0	2	270	0.00	29.921 
11:50	32.8	32.8	32.8	97	32.0	0	1	270	0.00	29.922 
11:55	33.1	33.1	33.1	97	32.3	0	1	270	0.00	29.923 
12:00	32.9	32.9	32.9	97	32.1	0	1	270	0.00	29.924 
12:05	33.2	33.2	33.2	97	32.4	0	2	270	0.00	29.927 
12:10	33.2	33.2	33.2	97	32.4	0	1	270	0.00	29.926 
12:15	33.4	33.4	33.4	97	32.6	0	1	270	0.00	29.924 
12:20	34.0	34.0	34.0	97	33.2	0	2	270	0.00	29.919 
12:25	34.3	34.3	34.3	97	33.5	0	1	270	0.00	29.917 
12:30	35.0	35.0	35.0	97	34.2	0	1	270	0.00	29.914 
12:35	35.6	35.6	35.6	97	34.8	0	2	270	0.00	29.911 
12:40	35.9	35.9	35.9	97	35.1	1	3	248	0.00	29.910 
12:45	36.2	36.2	36.2	96	35.2	1	3	248	0.00	29.907 
12:50	36.8	36.8	36.8	96	35.8	0	2	248	0.00	29.905 
12:55	37.0	37.0	37.0	95	35.7	1	3	248	0.00	29.905 
13:00	37.6	37.6	37.6	92	35.5	0	2	225	0.00	29.900 
13:05	37.9	37.9	37.9	89	35.0	1	2	90	0.00	29.899 
13:10	37.5	37.5	37.5	85	33.4	2	5	112	0.00	29.898 
13:15	36.9	36.9	36.9	85	32.8	2	3	112	0.00	29.900 
13:20	37.2	37.2	37.2	84	32.8	1	3	112	0.00	29.900 
13:25	37.6	37.6	37.6	84	33.2	1	2	112	0.00	29.897 
13:30	37.8	37.8	37.8	82	32.8	1	3	112	0.00	29.896 
13:35	37.9	37.9	37.9	81	32.6	1	3	135	0.00	29.896 
13:40	38.3	38.3	38.3	81	33.0	1	2	112	0.00	29.895 
13:45	38.8	38.8	38.8	80	33.2	1	2	112	0.00	29.891 
13:50	39.2	39.2	39.2	79	33.2	1	2	112	0.00	29.890 
13:55	39.5	39.5	39.5	77	32.9	1	2	135	0.00	29.888 
14:00	39.5	39.5	39.5	78	33.2	1	4	135	0.00	29.888 
14:05	39.5	39.5	39.5	77	32.9	1	3	112	0.00	29.890 
14:10	40.2	40.2	40.2	77	33.6	1	2	45	0.00	29.889 
14:15	41.1	41.1	41.1	76	34.1	0	1	45	0.00	29.889 
14:20	41.3	41.3	41.3	73	33.3	1	4	45	0.00	29.888 
14:25	40.9	40.9	40.9	74	33.3	1	4	112	0.00	29.888 
14:30	40.5	40.5	40.5	75	33.2	2	5	112	0.00	29.888 
14:35	39.9	39.9	39.9	76	33.0	2	4	90	0.00	29.889 
14:40	39.9	39.9	39.9	77	33.3	1	4	90	0.00	29.889 
14:45	39.9	39.9	39.9	76	33.0	1	4	112	0.00	29.890 
14:50	39.6	39.6	39.6	77	33.0	1	3	90	0.00	29.891 
14:55	39.6	39.6	39.6	77	33.0	0	2	90	0.00	29.889 
15:00	39.8	39.8	39.8	76	32.9	1	2	90	0.00	29.886 
15:05	40.1	40.1	40.1	76	33.2	0	2	90	0.00	29.886 
15:10	40.9	40.9	40.9	75	33.6	1	3	248	0.00	29.885 
15:15	41.5	41.5	41.5	72	33.2	1	3	248	0.00	29.883 
15:20	41.8	41.8	41.8	72	33.4	1	3	315	0.00	29.883 
15:25	42.1	42.1	42.1	71	33.4	1	2	248	0.00	29.884 
15:30	42.2	42.2	42.2	71	33.5	1	3	315	0.00	29.885 
15:35	42.2	42.2	42.2	71	33.5	1	4	248	0.00	29.885 
15:40	42.1	42.1	42.1	71	33.4	1	2	248	0.00	29.886 
15:45	41.8	41.8	41.8	71	33.1	1	3	292	0.00	29.885 
15:50	41.6	41.6	41.6	72	33.3	1	4	270	0.00	29.885 
15:55	41.8	41.8	41.8	72	33.4	1	3	270	0.00	29.885 
16:00	42.2	42.2	42.2	71	33.5	1	2	248	0.00	29.885 
16:05	42.2	42.2	42.2	71	33.5	1	3	248	0.00	29.884 
16:10	42.3	42.3	42.3	70	33.2	1	3	248	0.00	29.880 
16:15	42.3	42.3	42.3	70	33.2	1	3	270	0.00	29.881 
16:20	42.3	42.3	42.3	70	33.2	1	3	270	0.00	29.884 
16:25	42.1	42.1	42.1	71	33.4	1	3	248	0.00	29.885 
16:30	41.9	41.9	41.9	71	33.2	0	2	248	0.00	29.883 
16:35	41.6	41.6	41.6	72	33.3	0	2	248	0.00	29.883 
16:40	41.6	41.6	41.6	72	33.3	0	2	270	0.00	29.885 
16:45	41.8	41.8	41.8	72	33.4	1	2	270	0.00	29.885 
16:50	41.9	41.9	41.9	71	33.2	0	3	248	0.00	29.883 
16:55	41.9	41.9	41.9	71	33.2	1	3	248	0.00	29.882 
17:00	41.8	41.8	41.8	72	33.4	0	1	248	0.00	29.883 
17:05	41.5	41.5	41.5	72	33.2	0	2	248	0.00	29.883 
17:10	41.5	41.5	41.5	73	33.5	0	2	248	0.00	29.878 
17:15	41.3	41.3	41.3	73	33.3	0	1	248	0.00	29.875 
17:20	41.2	41.2	41.2	73	33.2	0	1	248	0.00	29.878 
17:25	41.1	41.1	41.1	73	33.1	0	1	248	0.00	29.880 
17:30	40.8	40.8	40.8	73	32.8	1	3	22	0.00	29.882 
17:35	39.8	39.8	39.8	76	32.9	1	2	22	0.00	29.880 
17:40	38.8	38.8	38.8	78	32.5	1	3	45	0.00	29.878 
17:45	38.2	38.2	38.2	79	32.3	1	2	45	0.00	29.879 
17:50	37.9	37.9	37.9	80	32.3	0	2	45	0.00	29.881 
17:55	37.3	37.3	37.3	81	32.0	1	2	45	0.00	29.886 
18:00	37.0	37.0	37.0	81	31.7	0	1	22	0.00	29.882 
18:05	36.6	36.6	36.6	82	31.6	0	2	22	0.00	29.879 
18:10	36.3	36.3	36.3	83	31.6	0	1	22	0.00	29.876 
18:15	36.0	36.0	36.0	83	31.3	0	0	---	0.00	29.881 
18:20	35.8	35.8	35.8	84	31.4	0	1	22	0.00	29.882 
18:25	35.5	35.5	35.5	84	31.2	0	0	---	0.00	29.883 
18:30	35.2	35.2	35.2	84	30.9	0	0	---	0.00	29.878 
18:35	35.0	35.0	35.0	84	30.7	0	0	---	0.00	29.880 
18:40	34.7	34.7	34.7	84	30.4	0	0	---	0.00	29.882 
18:45	34.4	34.4	34.4	85	30.4	0	0	---	0.00	29.887 
18:50	34.3	34.3	34.3	86	30.6	0	0	---	0.00	29.888 
18:55	34.3	34.3	34.3	87	30.8	0	2	0	0.00	29.890 
19:00	34.4	34.4	34.4	86	30.7	0	1	0	0.00	29.890 
19:05	34.6	34.6	34.6	86	30.9	0	1	0	0.00	29.891 
19:10	34.6	34.6	34.6	86	30.9	0	1	0	0.00	29.888 
19:15	34.7	34.7	34.7	85	30.7	0	1	0	0.00	29.881 
19:20	34.7	34.7	34.7	85	30.7	0	1	0	0.00	29.880 
19:25	34.9	34.9	34.9	85	30.9	0	2	0	0.00	29.880 
19:30	34.9	34.9	34.9	85	30.9	0	1	0	0.00	29.876 
19:35	34.9	34.9	34.9	85	30.9	0	1	0	0.00	29.878 
19:40	34.7	34.7	34.7	85	30.7	0	1	0	0.00	29.876 
19:45	34.7	34.7	34.7	85	30.7	0	1	0	0.00	29.875 
19:50	34.7	34.7	34.7	85	30.7	0	1	0	0.00	29.875 
19:55	34.6	34.6	34.6	86	30.9	0	1	0	0.00	29.875 
20:00	34.7	34.7	34.7	86	30.9	0	1	0	0.00	29.874 
20:05	34.9	34.9	34.9	85	30.9	0	1	0	0.00	29.874 
20:10	34.7	34.7	34.7	85	30.7	0	1	0	0.00	29.873 
20:15	34.6	34.6	34.6	85	30.6	0	1	0	0.00	29.873 
20:20	34.4	34.4	34.4	85	30.4	0	1	0	0.00	29.872 
20:25	34.1	34.1	34.1	86	30.4	0	0	---	0.00	29.867 
20:30	34.0	34.0	34.0	86	30.3	0	1	0	0.00	29.863 
20:35	33.8	33.8	33.8	86	30.1	0	1	0	0.00	29.862 
20:40	33.7	33.7	33.7	87	30.3	0	1	0	0.00	29.859 
20:45	33.7	33.7	33.7	87	30.3	0	1	0	0.00	29.859 
20:50	33.7	33.7	33.7	88	30.5	0	1	0	0.00	29.860 
20:55	33.5	33.5	33.5	88	30.3	0	0	---	0.00	29.860 
21:00	33.5	33.5	33.5	88	30.3	0	1	0	0.00	29.859 
21:05	33.4	33.4	33.4	88	30.2	0	1	0	0.00	29.860 
21:10	33.4	33.4	33.4	88	30.2	0	2	0	0.00	29.859 
21:15	33.5	33.5	33.5	89	30.6	0	2	315	0.00	29.859 
21:20	34.0	34.0	34.0	89	31.1	1	2	248	0.00	29.857 
21:25	34.0	34.0	34.0	88	30.8	1	3	248	0.00	29.856 
21:30	34.3	34.3	34.3	88	31.1	1	3	202	0.00	29.857 
21:35	34.6	34.6	34.6	88	31.4	1	3	225	0.00	29.857 
21:40	34.7	34.7	34.7	87	31.2	1	4	248	0.00	29.857 
21:45	34.9	34.9	34.9	86	31.1	1	4	248	0.00	29.856 
21:50	34.9	34.9	34.9	85	30.9	0	3	248	0.00	29.856 
21:55	34.6	34.6	34.6	85	30.6	0	3	248	0.00	29.853 
22:00	34.4	34.4	34.4	85	30.4	0	2	225	0.00	29.850 
22:05	34.3	34.3	34.3	85	30.3	0	1	225	0.00	29.849 
22:10	34.0	34.0	34.0	85	30.0	0	1	225	0.00	29.848 
22:15	33.8	33.8	33.8	86	30.1	0	1	225	0.00	29.848 
22:20	33.8	33.8	33.8	86	30.1	0	2	225	0.00	29.848 
22:25	33.8	33.8	33.8	86	30.1	0	1	225	0.00	29.852 
22:30	33.8	33.8	33.8	86	30.1	0	2	225	0.00	29.844 
22:35	33.7	33.7	33.7	86	30.0	0	1	248	0.00	29.842 
22:40	33.4	33.4	33.4	85	29.4	0	1	248	0.00	29.843 
22:45	33.2	33.2	33.2	86	29.5	0	1	248	0.00	29.842 
22:50	33.1	33.1	33.1	86	29.4	0	1	248	0.00	29.847 
22:55	33.1	33.1	33.1	87	29.7	0	1	248	0.00	29.845 
23:00	32.9	32.9	32.9	87	29.5	0	1	248	0.00	29.842 
23:05	32.8	32.8	32.8	87	29.4	0	2	248	0.00	29.836 
23:10	32.8	32.8	32.8	86	29.1	0	1	248	0.00	29.831 
23:15	32.7	32.7	32.7	86	29.0	0	1	248	0.00	29.828 
23:20	32.7	32.7	32.7	86	29.0	0	1	248	0.00	29.826 
23:25	32.9	32.9	32.9	87	29.5	1	2	248	0.00	29.826 
23:30	33.1	33.1	33.1	86	29.4	1	4	248	0.00	29.825 
23:35	33.4	33.4	33.4	86	29.7	1	3	248	0.00	29.823 
23:40	33.5	33.5	33.5	85	29.5	0	2	248	0.00	29.821 
23:45	33.5	33.5	33.5	84	29.2	0	2	225	0.00	29.821 
23:50	33.5	33.5	33.5	84	29.2	0	2	225	0.00	29.820 
23:55	33.7	33.7	33.7	84	29.4	0	3	248	0.00	29.814 

CoCoRaHS
IN-AL-39
A2 Web Hosting
Creative Commons License
GoDaddy
Look for:

loaded 2017-10-17 00:23:22 • last modified 2010-11-18 10:43:29
Privacy PolicyDisclaimer
• wx.awcolley.com is powered by PmWiki v.2002016 •
• all content (unless otherwise noted) © 2017 A W Colley